Time;durP1;ratioP1;P1;durP2;ratioP2;P2;SDS_P1;SDS_P2;PMS_P1;PMS_P2;Temp;Humidity;BMP_temperature;BMP_pressure;BME280_temperature;BME280_humidity;BME280_pressure;Samples;Min_cycle;Max_cycle;Signal;HPM_P1;HPM_P2
2022/09/27 00:01:31;;;;;;;1.10;0.55;;;;;;;18.71;58.81;99758.72;5085350;28;20450;-77
2022/09/27 00:03:59;;;;;;;2.55;0.60;;;;;;;18.72;58.42;99759.56;5104754;28;20523;-78
2022/09/27 00:06:27;;;;;;;1.30;0.60;;;;;;;18.71;58.42;99755.28;5091395;28;20048;-79
2022/09/27 00:08:53;;;;;;;2.45;0.63;;;;;;;18.71;58.51;99757.88;5089325;28;20054;-77
2022/09/27 00:11:28;;;;;;;1.75;0.70;;;;;;;18.70;58.49;99759.63;5106187;28;20054;-79
2022/09/27 00:13:56;;;;;;;2.65;0.90;;;;;;;18.70;58.45;99761.38;5080493;28;20803;-79
2022/09/27 00:16:23;;;;;;;1.90;0.70;;;;;;;18.71;58.50;99763.94;5087328;28;20044;-79
2022/09/27 00:18:49;;;;;;;1.92;0.70;;;;;;;18.71;58.58;99768.31;5084033;28;20100;-79
2022/09/27 00:21:14;;;;;;;1.90;0.70;;;;;;;18.70;58.38;99764.84;5073398;28;20051;-79
2022/09/27 00:23:40;;;;;;;1.52;0.52;;;;;;;18.71;58.45;99757.88;5085293;28;20120;-77
2022/09/27 00:26:08;;;;;;;1.00;0.50;;;;;;;18.70;58.26;99767.47;5088337;28;20039;-79
2022/09/27 00:28:33;;;;;;;1.50;0.50;;;;;;;18.70;58.14;99777.88;5091606;28;20054;-80
2022/09/27 00:31:00;;;;;;;1.58;0.60;;;;;;;18.71;58.50;99773.50;5105156;28;20039;-79
2022/09/27 00:33:26;;;;;;;2.45;0.50;;;;;;;18.70;58.37;99774.41;5094548;28;20048;-79
2022/09/27 00:35:51;;;;;;;1.35;0.60;;;;;;;18.70;58.49;99777.00;5091053;28;20036;-79
2022/09/27 00:38:17;;;;;;;1.88;0.70;;;;;;;18.70;58.41;99771.78;5059833;28;20055;-79
2022/09/27 00:40:43;;;;;;;1.40;0.60;;;;;;;18.70;58.42;99779.59;5056043;28;20048;-79
2022/09/27 00:43:14;;;;;;;1.45;0.57;;;;;;;18.69;58.42;99777.91;5090891;28;20105;-77
2022/09/27 00:45:40;;;;;;;1.10;0.50;;;;;;;18.69;58.24;99777.91;5094802;28;20039;-77
2022/09/27 00:48:05;;;;;;;1.25;0.60;;;;;;;18.69;58.39;99768.34;5085947;28;20048;-77
2022/09/27 00:50:36;;;;;;;0.63;0.40;;;;;;;18.69;58.30;99775.31;5101378;28;20059;-76
2022/09/27 00:53:13;;;;;;;2.40;0.80;;;;;;;18.70;58.39;99769.19;5086603;28;20086;-78
2022/09/27 00:55:43;;;;;;;1.45;0.60;;;;;;;18.69;58.28;99770.09;5088362;28;20043;-77
2022/09/27 00:58:11;;;;;;;3.42;0.50;;;;;;;18.68;58.03;99774.47;5089110;28;20147;-77
2022/09/27 01:00:41;;;;;;;1.60;0.60;;;;;;;18.69;58.34;99772.69;5083571;28;20028;-77
2022/09/27 01:03:11;;;;;;;2.40;0.90;;;;;;;18.68;58.37;99777.06;5089399;28;20410;-78
2022/09/27 01:05:36;;;;;;;1.15;0.60;;;;;;;18.68;58.36;99778.81;5110247;28;20035;-77
2022/09/27 01:08:02;;;;;;;2.58;0.50;;;;;;;18.67;58.27;99777.97;5109696;28;20050;-77
2022/09/27 01:10:35;;;;;;;1.77;0.70;;;;;;;18.69;58.23;99775.31;5086766;28;20062;-78
2022/09/27 01:13:22;;;;;;;3.28;0.68;;;;;;;18.68;58.15;99774.47;5080968;28;20557;-77
2022/09/27 01:18:34;;;;;;;2.87;0.50;;;;;;;18.67;58.28;99772.75;5101475;28;20055;-78
2022/09/27 01:21:24;;;;;;;2.25;0.70;;;;;;;18.67;58.04;99808.38;5092134;28;20300;-78
2022/09/27 01:24:08;;;;;;;2.20;0.57;;;;;;;18.67;58.33;99784.94;5110026;28;20069;-79
2022/09/27 01:29:48;;;;;;;3.00;0.60;;;;;;;18.66;58.20;99797.13;5082125;28;20055;-80
2022/09/27 01:32:44;;;;;;;1.25;0.60;;;;;;;18.67;58.09;99787.53;5100266;28;20550;-80
2022/09/27 01:35:22;;;;;;;1.45;0.50;;;;;;;18.66;57.98;99781.47;5089520;28;20055;-78
2022/09/27 01:38:08;;;;;;;2.80;0.63;;;;;;;18.66;57.95;99780.59;5093737;28;20181;-80
2022/09/27 01:43:22;;;;;;;0.70;0.50;;;;;;;18.65;58.13;99779.75;5076365;28;20047;-78
2022/09/27 01:46:09;;;;;;;1.17;0.57;;;;;;;18.65;58.30;99784.13;5078040;28;20165;-79
2022/09/27 01:48:43;;;;;;;1.38;0.70;;;;;;;18.65;58.08;99781.50;5111551;28;20122;-78
2022/09/27 01:51:18;;;;;;;1.30;0.47;;;;;;;18.65;58.04;99786.72;5110671;27;20574;-77
2022/09/27 01:53:47;;;;;;;1.58;0.50;;;;;;;18.65;58.10;99790.19;5094560;28;20048;-79
2022/09/27 01:56:17;;;;;;;3.22;0.70;;;;;;;18.64;58.22;99785.88;5079999;28;20052;-77
2022/09/27 02:01:16;;;;;;;1.38;0.52;;;;;;;18.64;57.89;99782.41;5093263;28;20055;-77
2022/09/27 02:03:46;;;;;;;1.50;0.55;;;;;;;18.64;58.09;99778.06;5091968;28;20051;-79
2022/09/27 02:06:20;;;;;;;1.08;0.55;;;;;;;18.64;58.10;99780.66;5087568;28;20075;-77
2022/09/27 02:11:13;;;;;;;1.35;0.45;;;;;;;18.64;57.87;99771.97;5093394;28;20055;-77
2022/09/27 02:16:22;;;;;;;1.30;0.50;;;;;;;18.62;57.96;99771.19;5065961;28;20050;-77
2022/09/27 02:21:14;;;;;;;1.02;0.50;;;;;;;18.63;57.81;99770.28;5106893;28;20044;-79
2022/09/27 02:23:45;;;;;;;2.72;0.73;;;;;;;18.63;58.08;99759.84;5087330;28;20048;-78
2022/09/27 02:26:16;;;;;;;2.15;0.55;;;;;;;18.62;58.03;99758.16;5081438;28;20460;-78
2022/09/27 02:31:13;;;;;;;1.27;0.50;;;;;;;18.62;57.73;99761.63;5106049;28;21262;-79
2022/09/27 02:36:14;;;;;;;0.75;0.40;;;;;;;18.62;57.71;99763.38;5111206;27;20067;-77
2022/09/27 02:38:40;;;;;;;2.78;0.60;;;;;;;18.62;57.86;99760.78;5059290;28;20054;-77
2022/09/27 02:41:17;;;;;;;1.33;0.60;;;;;;;18.62;57.63;99766.84;5070693;28;20055;-78
2022/09/27 02:43:47;;;;;;;2.45;0.60;;;;;;;18.62;57.82;99763.38;5088128;28;20060;-78
2022/09/27 02:46:28;;;;;;;1.63;0.60;;;;;;;18.61;57.94;99759.91;5083325;28;20402;-80
2022/09/27 02:48:56;;;;;;;1.20;0.50;;;;;;;18.62;57.63;99768.59;5089524;28;20182;-80
2022/09/27 02:54:37;;;;;;;1.10;0.60;;;;;;;18.61;57.66;99765.09;5106574;28;20159;-78
2022/09/27 03:00:18;;;;;;;1.58;0.60;;;;;;;18.60;57.78;99760.81;5091002;28;20059;-79
2022/09/27 03:05:44;;;;;;;1.85;0.55;;;;;;;18.60;57.59;99765.19;5067271;28;20184;-79
2022/09/27 03:08:11;;;;;;;0.50;0.40;;;;;;;18.60;57.56;99759.97;5102995;28;20055;-79
2022/09/27 03:10:37;;;;;;;0.90;0.50;;;;;;;18.60;57.66;99765.19;5077587;28;20043;-78
2022/09/27 03:13:03;;;;;;;1.20;0.60;;;;;;;18.60;57.65;99767.78;5107371;28;20047;-79
2022/09/27 03:15:29;;;;;;;3.65;0.50;;;;;;;18.59;57.58;99766.91;5079125;28;20040;-79
2022/09/27 03:17:54;;;;;;;1.35;0.50;;;;;;;18.59;57.49;99761.69;5087353;28;20402;-78
2022/09/27 03:20:20;;;;;;;1.35;0.40;;;;;;;18.60;57.66;99775.59;5047757;28;20040;-78
2022/09/27 03:22:45;;;;;;;2.13;0.50;;;;;;;18.60;57.59;99778.22;5074163;28;20045;-77
2022/09/27 03:25:11;;;;;;;1.17;0.50;;;;;;;18.59;57.67;99785.16;5068849;28;20512;-78
2022/09/27 03:27:36;;;;;;;1.20;0.50;;;;;;;18.59;57.67;99784.31;5065344;28;20032;-78
2022/09/27 03:30:02;;;;;;;1.50;0.60;;;;;;;18.58;57.66;99778.25;5076741;28;20048;-80
2022/09/27 03:32:27;;;;;;;1.35;0.60;;;;;;;18.57;57.68;99768.69;5070553;28;20052;-78
2022/09/27 03:34:56;;;;;;;1.35;0.40;;;;;;;18.58;57.53;99769.59;5062018;28;20510;-78
2022/09/27 03:37:22;;;;;;;1.13;0.50;;;;;;;18.58;57.50;99769.59;5046973;28;20051;-77
2022/09/27 03:39:47;;;;;;;1.35;0.57;;;;;;;18.57;57.53;99765.25;5079838;28;20040;-80
2022/09/27 03:42:12;;;;;;;2.58;0.60;;;;;;;18.58;57.46;99769.59;5077450;28;20497;-80
2022/09/27 03:44:38;;;;;;;1.48;0.45;;;;;;;18.57;57.61;99770.47;5068341;28;20455;-79
2022/09/27 03:47:03;;;;;;;1.33;0.50;;;;;;;18.57;57.57;99765.25;5070162;28;20052;-78
2022/09/27 03:49:28;;;;;;;1.20;0.47;;;;;;;18.56;57.48;99767.00;5075414;28;20051;-80
2022/09/27 03:51:54;;;;;;;1.02;0.40;;;;;;;18.57;57.44;99760.88;5067459;28;20069;-79
2022/09/27 03:54:19;;;;;;;1.67;0.43;;;;;;;18.57;57.24;99765.25;5091863;28;20378;-78
2022/09/27 03:56:45;;;;;;;1.42;0.43;;;;;;;18.57;57.54;99752.22;5071132;28;20072;-79
2022/09/27 03:59:10;;;;;;;0.88;0.45;;;;;;;18.56;57.47;99761.81;5025365;28;1146016;-80
2022/09/27 04:01:37;;;;;;;1.30;0.50;;;;;;;18.55;57.31;99752.25;5074883;28;20042;-81
2022/09/27 04:04:03;;;;;;;3.05;0.52;;;;;;;18.56;57.36;99753.16;5087037;28;20052;-79
2022/09/27 04:06:29;;;;;;;1.80;0.50;;;;;;;18.55;57.62;99752.25;5081343;28;20055;-79
2022/09/27 04:08:54;;;;;;;1.00;0.50;;;;;;;18.56;57.40;99764.41;5081426;28;20143;-78
2022/09/27 04:11:22;;;;;;;0.90;0.40;;;;;;;18.56;57.34;99780.03;5053355;28;20050;-79
2022/09/27 04:13:48;;;;;;;1.23;0.50;;;;;;;18.55;57.47;99780.94;5083958;28;20097;-79
2022/09/27 04:16:12;;;;;;;1.02;0.50;;;;;;;18.55;57.36;99788.75;5082541;28;20465;-79
2022/09/27 04:18:38;;;;;;;1.00;0.45;;;;;;;18.54;57.31;99775.78;5057838;28;20048;-79
2022/09/27 04:21:03;;;;;;;0.82;0.38;;;;;;;18.55;57.18;99783.53;5073159;28;20038;-79
2022/09/27 04:23:29;;;;;;;0.88;0.40;;;;;;;18.54;57.34;99781.00;5070012;28;20456;-79
2022/09/27 04:25:55;;;;;;;1.60;0.50;;;;;;;18.54;57.24;99773.19;5081356;28;20115;-80
2022/09/27 04:28:21;;;;;;;1.02;0.50;;;;;;;18.54;57.17;99773.19;5062263;28;20047;-81
2022/09/27 04:30:47;;;;;;;0.75;0.30;;;;;;;18.53;57.24;99768.84;5070642;28;20516;-81
2022/09/27 04:33:13;;;;;;;1.45;0.55;;;;;;;18.54;57.04;99768.81;5072255;28;20069;-80
2022/09/27 04:38:13;;;;;;;1.52;0.50;;;;;;;18.55;57.11;99757.47;5088023;28;20067;-78
2022/09/27 04:40:38;;;;;;;1.80;0.57;;;;;;;18.53;56.93;99756.69;5058239;28;20493;-81
2022/09/27 04:43:04;;;;;;;1.35;0.57;;;;;;;18.55;57.16;99761.84;5103718;28;20056;-79
2022/09/27 04:45:30;;;;;;;1.77;0.60;;;;;;;18.54;57.25;99762.75;5078898;28;20541;-79
2022/09/27 04:47:55;;;;;;;0.90;0.45;;;;;;;18.52;57.05;99754.13;5074262;28;20512;-79
2022/09/27 04:50:20;;;;;;;1.13;0.30;;;;;;;18.54;56.95;99754.94;5073571;28;20052;-78
2022/09/27 04:55:12;;;;;;;8.02;0.60;;;;;;;18.53;57.02;99746.28;5083764;28;20056;-79
2022/09/27 04:57:38;;;;;;;3.05;0.60;;;;;;;18.53;57.26;99754.09;5071470;28;20104;-81
2022/09/27 05:00:04;;;;;;;1.80;0.60;;;;;;;18.55;56.91;99754.03;5071976;28;20043;-80
2022/09/27 05:02:30;;;;;;;1.27;0.50;;;;;;;18.54;57.08;99762.75;5078671;28;20154;-83
2022/09/27 05:04:58;;;;;;;8.45;2.45;;;;;;;18.56;57.01;99768.78;5076541;28;20134;-82
2022/09/27 05:07:24;;;;;;;5.88;1.75;;;;;;;18.55;57.67;99762.69;5091515;28;20044;-80
2022/09/27 05:09:49;;;;;;;9.20;3.45;;;;;;;18.55;57.26;99762.69;5094156;28;20040;-85
2022/09/27 05:12:15;;;;;;;10.43;3.55;;;;;;;18.55;57.22;99754.88;5092842;28;20048;-86
2022/09/27 05:14:40;;;;;;;10.27;3.97;;;;;;;18.55;57.07;99760.09;5043445;28;20037;-87
2022/09/27 05:17:08;;;;;;;16.13;4.05;;;;;;;18.55;57.22;99757.47;5093032;28;20047;-89
2022/09/27 05:19:34;;;;;;;12.15;3.67;;;;;;;18.55;57.18;99764.44;5096208;28;20050;-86
2022/09/27 05:22:00;;;;;;;10.40;3.42;;;;;;;18.53;57.15;99764.50;5111248;28;20035;-82
2022/09/27 05:24:26;;;;;;;8.07;3.40;;;;;;;18.55;57.11;99756.63;5091824;28;20044;-83
2022/09/27 05:26:55;;;;;;;8.40;3.05;;;;;;;18.55;57.31;99761.84;5094899;28;20050;-85
2022/09/27 05:29:21;;;;;;;8.10;2.70;;;;;;;18.54;56.93;99775.78;5073262;28;20047;-86
2022/09/27 05:31:46;;;;;;;10.68;2.53;;;;;;;18.53;57.26;99767.13;5077592;28;20065;-79
2022/09/27 05:34:11;;;;;;;5.55;2.13;;;;;;;18.53;57.30;99764.50;5097173;28;20095;-86
2022/09/27 05:36:37;;;;;;;8.18;2.30;;;;;;;18.53;57.31;99774.94;5080535;28;20048;-82
2022/09/27 05:39:03;;;;;;;6.80;2.15;;;;;;;18.54;57.15;99776.63;5077660;28;20142;-86
2022/09/27 05:41:31;;;;;;;7.15;2.25;;;;;;;18.55;57.21;99772.25;5091410;27;20092;-86
2022/09/27 05:43:57;;;;;;;4.95;2.00;;;;;;;18.54;57.18;99786.22;5099506;28;20047;-84
2022/09/27 05:46:22;;;;;;;10.68;3.60;;;;;;;18.53;57.09;99787.97;5088883;28;20196;-80
2022/09/27 05:51:13;;;;;;;18.00;4.47;;;;;;;18.53;57.31;99782.75;5087592;28;21206;-79
2022/09/27 05:53:39;;;;;;;18.05;4.20;;;;;;;18.52;57.39;99788.84;5063962;28;20060;-81
2022/09/27 05:56:17;;;;;;;15.30;3.88;;;;;;;18.44;57.34;99794.31;5101924;28;20044;-77
2022/09/27 05:58:42;;;;;;;10.93;3.60;;;;;;;18.28;57.70;99790.44;5089417;28;20052;-77
2022/09/27 06:01:09;;;;;;;9.65;3.45;;;;;;;18.14;57.96;99792.56;5092261;28;20039;-80
2022/09/27 06:03:35;;;;;;;11.45;2.88;;;;;;;18.03;55.97;99790.25;5113157;28;20055;-81
2022/09/27 06:06:05;;;;;;;9.13;2.95;;;;;;;18.02;57.72;99786.81;5092557;28;20039;-80
2022/09/27 06:08:35;;;;;;;11.57;2.58;;;;;;;18.05;57.54;99781.53;5094407;28;20109;-77
2022/09/27 06:11:04;;;;;;;44.70;8.75;;;;;;;18.01;57.23;99787.72;5092001;28;20490;-78
2022/09/27 06:13:30;;;;;;;31.45;7.18;;;;;;;17.96;57.24;99788.72;5112743;28;20393;-79
2022/09/27 06:15:55;;;;;;;21.10;4.63;;;;;;;17.95;57.05;99792.25;5092594;28;20039;-81
2022/09/27 06:18:21;;;;;;;21.73;5.15;;;;;;;18.03;56.83;99796.34;5077255;28;20059;-78
2022/09/27 06:20:46;;;;;;;17.95;4.55;;;;;;;18.15;56.02;99792.53;5077339;28;20477;-82
2022/09/27 06:23:14;;;;;;;17.10;4.25;;;;;;;18.24;55.71;99805.28;5074863;28;20100;-78
2022/09/27 06:25:40;;;;;;;14.95;3.78;;;;;;;18.29;56.19;99799.94;5094210;28;20072;-78
2022/09/27 06:28:08;;;;;;;14.98;3.90;;;;;;;18.32;55.98;99801.63;5074764;28;20032;-78
2022/09/27 06:30:39;;;;;;;10.63;3.60;;;;;;;18.34;55.96;99800.66;5095901;28;20126;-80
2022/09/27 06:33:05;;;;;;;11.68;3.28;;;;;;;18.36;56.02;99801.47;5093034;28;20035;-79
2022/09/27 06:35:31;;;;;;;13.70;3.40;;;;;;;18.37;56.15;99797.97;5093874;28;20505;-77
2022/09/27 06:37:56;;;;;;;12.57;2.95;;;;;;;18.37;56.00;99792.75;5091309;28;20046;-78
2022/09/27 06:40:25;;;;;;;10.57;2.92;;;;;;;18.39;55.63;99797.94;5114482;28;20085;-78
2022/09/27 06:42:51;;;;;;;8.55;2.75;;;;;;;18.40;55.87;99792.69;5092438;28;20390;-78
2022/09/27 06:45:17;;;;;;;8.00;2.70;;;;;;;18.40;55.83;99789.19;5092513;28;20062;-77
2022/09/27 06:47:43;;;;;;;8.57;2.90;;;;;;;18.40;56.14;99789.19;5111507;28;20048;-78
2022/09/27 06:50:08;;;;;;;8.68;2.42;;;;;;;18.41;56.13;99790.91;5109502;28;20048;-77
2022/09/27 06:52:35;;;;;;;8.93;2.80;;;;;;;18.40;55.77;99792.69;5093406;28;20047;-78
2022/09/27 06:55:02;;;;;;;6.82;2.38;;;;;;;18.42;56.00;99797.81;5074510;28;20048;-78
2022/09/27 07:00:23;;;;;;;9.05;2.67;;;;;;;18.42;56.03;99796.09;5092757;28;20199;-80
2022/09/27 07:02:54;;;;;;;7.43;2.70;;;;;;;18.42;56.05;99803.03;5092984;28;20518;-78
2022/09/27 07:05:19;;;;;;;8.27;2.55;;;;;;;18.42;56.39;99806.50;5074832;28;20079;-78
2022/09/27 07:07:47;;;;;;;7.70;2.50;;;;;;;18.42;56.00;99813.44;5076214;28;20277;-79
2022/09/27 07:10:13;;;;;;;9.20;2.72;;;;;;;18.42;55.98;99813.44;5108880;28;20131;-78
2022/09/27 07:12:38;;;;;;;7.47;2.40;;;;;;;18.42;55.84;99811.72;5076250;28;20067;-78
2022/09/27 07:15:05;;;;;;;7.78;2.10;;;;;;;18.42;55.87;99816.94;5090441;28;20059;-78
2022/09/27 07:17:30;;;;;;;7.25;2.30;;;;;;;18.42;56.07;99816.06;5093293;28;20048;-78
2022/09/27 07:19:55;;;;;;;6.65;2.40;;;;;;;18.43;55.77;99846.44;5091212;28;20063;-78
2022/09/27 07:22:21;;;;;;;6.25;2.20;;;;;;;18.42;56.04;99832.56;5075686;28;20486;-77
2022/09/27 07:24:47;;;;;;;7.38;2.30;;;;;;;18.42;55.87;99834.28;5059250;28;20524;-78
2022/09/27 07:27:13;;;;;;;9.10;1.95;;;;;;;18.42;55.72;99829.97;5073663;28;20770;-78
2022/09/27 07:29:38;;;;;;;5.10;2.35;;;;;;;18.41;56.03;99832.59;5076019;28;20151;-78
2022/09/27 07:32:04;;;;;;;6.15;2.10;;;;;;;18.42;55.93;99829.97;5057182;28;20489;-78
2022/09/27 07:34:29;;;;;;;7.38;2.10;;;;;;;18.42;55.96;99837.78;5092843;28;20051;-78
2022/09/27 07:37:04;;;;;;;7.88;2.03;;;;;;;18.41;56.04;99843.88;5074281;28;20052;-78
2022/09/27 07:39:30;;;;;;;5.13;2.03;;;;;;;18.42;56.04;99834.28;5085936;28;20059;-78
2022/09/27 07:41:55;;;;;;;4.68;2.08;;;;;;;18.42;56.08;99839.50;5090473;28;20497;-78
2022/09/27 07:44:20;;;;;;;5.93;2.10;;;;;;;18.41;55.98;99838.66;5075568;28;20151;-79
2022/09/27 07:46:46;;;;;;;5.60;2.00;;;;;;;18.41;55.98;99846.47;5075613;28;20051;-78
2022/09/27 07:49:11;;;;;;;5.43;2.10;;;;;;;18.42;55.90;99839.50;5073046;28;20131;-78
2022/09/27 07:51:36;;;;;;;6.80;2.03;;;;;;;18.41;55.85;99840.41;5058567;28;20436;-78
2022/09/27 07:54:02;;;;;;;5.75;1.85;;;;;;;18.40;55.86;99836.97;5090102;28;20054;-78
2022/09/27 07:56:28;;;;;;;6.28;2.00;;;;;;;18.40;55.93;99834.34;5092431;28;20047;-77
2022/09/27 07:58:53;;;;;;;3.92;1.73;;;;;;;18.41;55.92;99848.22;5090496;28;20047;-78
2022/09/27 08:01:19;;;;;;;5.10;1.73;;;;;;;18.40;55.76;99859.53;5074790;28;20096;-78
2022/09/27 08:03:45;;;;;;;3.95;1.60;;;;;;;18.41;55.69;99856.03;5091782;28;20050;-78
2022/09/27 08:06:11;;;;;;;4.75;1.60;;;;;;;18.40;55.92;99870.81;5073031;28;20048;-78
2022/09/27 08:08:36;;;;;;;4.25;1.60;;;;;;;18.40;55.78;99868.22;5092688;28;20048;-78
2022/09/27 08:11:12;;;;;;;5.18;1.80;;;;;;;18.40;56.06;99868.22;5090583;28;20039;-78
2022/09/27 08:13:38;;;;;;;5.45;1.80;;;;;;;18.40;55.78;99868.22;5113115;28;20062;-79
2022/09/27 08:16:04;;;;;;;4.50;1.70;;;;;;;18.39;55.89;99858.69;5052565;28;1151218;-80
2022/09/27 08:18:29;;;;;;;4.38;1.48;;;;;;;18.40;55.97;99862.13;5061273;28;20055;-80
2022/09/27 08:20:59;;;;;;;3.47;1.40;;;;;;;18.40;55.78;99867.34;5073482;28;20050;-81
2022/09/27 08:23:25;;;;;;;3.90;1.50;;;;;;;18.39;55.98;99857.84;5083914;28;20055;-79
2022/09/27 08:25:53;;;;;;;5.25;1.35;;;;;;;18.39;55.94;99865.66;5051450;28;20419;-80
2022/09/27 08:28:19;;;;;;;3.60;1.60;;;;;;;18.37;55.83;99857.88;5083453;28;20047;-79
2022/09/27 08:30:45;;;;;;;4.78;1.52;;;;;;;18.39;55.82;99863.03;5092386;28;20603;-79
2022/09/27 08:33:10;;;;;;;4.63;1.75;;;;;;;18.39;55.77;99860.44;5107659;28;20158;-79
2022/09/27 08:35:35;;;;;;;4.57;1.73;;;;;;;18.40;55.83;99867.34;5075100;28;20118;-77
2022/09/27 08:38:02;;;;;;;3.88;1.60;;;;;;;18.39;56.08;99886.50;5089161;28;20102;-78
2022/09/27 08:40:45;;;;;;;3.60;1.58;;;;;;;18.39;55.75;99902.13;5091448;28;20494;-78
2022/09/27 08:43:45;;;;;;;3.10;1.40;;;;;;;18.39;56.11;99929.00;5089275;28;20097;-79
2022/09/27 08:46:36;;;;;;;3.45;1.25;;;;;;;18.39;55.68;99899.50;5088851;28;20489;-79
2022/09/27 08:49:15;;;;;;;4.75;1.50;;;;;;;18.38;55.65;99911.69;5089643;28;20116;-79
2022/09/27 08:51:43;;;;;;;4.20;1.35;;;;;;;18.39;55.82;99907.31;5091139;28;20474;-79
2022/09/27 08:54:28;;;;;;;3.17;1.45;;;;;;;18.38;55.95;99936.84;5089387;28;20150;-78
2022/09/27 08:57:02;;;;;;;3.28;1.40;;;;;;;18.37;56.04;99933.41;5108239;28;20440;-79
2022/09/27 08:59:33;;;;;;;2.90;1.50;;;;;;;18.37;55.69;99925.59;5082311;28;20059;-77
2022/09/27 09:01:59;;;;;;;3.08;1.42;;;;;;;18.37;55.90;99929.97;5107357;28;20502;-77
2022/09/27 09:04:28;;;;;;;3.38;1.38;;;;;;;18.36;55.70;99916.09;5091110;28;20062;-77
2022/09/27 09:07:24;;;;;;;4.53;1.40;;;;;;;18.37;55.96;99919.53;5090152;28;20557;-79
2022/09/27 09:09:54;;;;;;;3.30;1.50;;;;;;;18.35;55.72;99909.16;5108095;28;20052;-77
2022/09/27 09:12:46;;;;;;;3.70;1.40;;;;;;;18.35;55.61;99906.53;5090286;28;20075;-77
2022/09/27 09:15:53;;;;;;;4.22;1.50;;;;;;;18.36;55.72;99907.44;5107207;28;20055;-79
2022/09/27 09:18:16;;;;;;;4.53;1.33;;;;;;;18.35;55.72;99903.94;5108499;28;20922;-79
2022/09/27 09:23:24;;;;;;;3.28;1.30;;;;;;;18.36;55.98;99897.00;5083287;28;20044;-77
2022/09/27 09:26:21;;;;;;;4.70;1.30;;;;;;;18.35;55.47;99890.06;5094177;28;20451;-78
2022/09/27 09:28:48;;;;;;;3.05;1.30;;;;;;;18.35;55.59;99882.25;5082054;28;20055;-78
2022/09/27 09:31:31;;;;;;;2.25;1.13;;;;;;;18.35;55.84;99875.28;5092823;28;20136;-78
2022/09/27 09:34:17;;;;;;;3.47;1.50;;;;;;;18.36;55.92;99871.81;5092457;28;20059;-78
2022/09/27 09:42:23;;;;;;;3.83;1.40;;;;;;;18.36;55.78;99869.19;5110818;28;20979;-78
2022/09/27 09:45:01;;;;;;;3.40;1.27;;;;;;;18.36;55.75;99890.03;5093596;28;20047;-81
2022/09/27 09:47:39;;;;;;;2.50;1.17;;;;;;;18.36;55.52;99889.19;5111393;28;20513;-77
2022/09/27 09:50:18;;;;;;;3.53;1.00;;;;;;;18.35;55.93;99882.25;5092010;28;20059;-77
2022/09/27 09:55:28;;;;;;;3.42;1.30;;;;;;;18.35;55.55;99883.09;5110650;28;20112;-78
2022/09/27 09:58:17;;;;;;;2.25;1.05;;;;;;;18.36;55.55;99881.38;5111128;28;20059;-80
2022/09/27 10:00:46;;;;;;;2.28;1.25;;;;;;;18.36;55.78;99881.38;5112159;28;20043;-79
2022/09/27 10:03:11;;;;;;;2.08;1.08;;;;;;;18.36;55.73;99879.63;5091770;28;20138;-78
2022/09/27 10:05:37;;;;;;;2.38;1.05;;;;;;;18.36;55.68;99878.78;5077203;28;20036;-79
2022/09/27 10:08:06;;;;;;;2.17;1.02;;;;;;;18.36;55.45;99879.63;5074682;28;20139;-78
2022/09/27 10:10:32;;;;;;;2.55;1.15;;;;;;;18.36;55.71;99887.44;5090173;28;20487;-81
2022/09/27 10:13:01;;;;;;;2.42;1.10;;;;;;;18.35;55.67;99880.50;5089505;28;20128;-77
2022/09/27 10:15:29;;;;;;;3.10;1.30;;;;;;;18.37;55.85;99872.66;5093722;28;20047;-78
2022/09/27 10:17:57;;;;;;;2.20;1.08;;;;;;;18.37;55.73;99883.06;5075609;28;20101;-79
2022/09/27 10:20:45;;;;;;;2.55;1.10;;;;;;;18.37;55.74;99885.69;5093420;28;20398;-78
2022/09/27 10:23:20;;;;;;;2.60;1.00;;;;;;;18.36;55.80;99876.16;5109815;28;20051;-79
2022/09/27 10:28:31;;;;;;;2.90;1.17;;;;;;;18.36;55.62;99870.97;5109819;28;20109;-79
2022/09/27 10:30:59;;;;;;;2.92;1.00;;;;;;;18.37;55.69;99872.66;5081588;28;20040;-79
2022/09/27 10:33:26;;;;;;;2.58;0.90;;;;;;;18.37;55.69;99870.03;5070108;28;20052;-78
2022/09/27 10:35:52;;;;;;;2.97;0.93;;;;;;;18.36;55.67;99863.16;5086563;28;20139;-78
2022/09/27 10:38:17;;;;;;;2.72;1.05;;;;;;;18.36;55.76;99864.00;5059232;28;20138;-77
2022/09/27 10:40:43;;;;;;;3.15;1.05;;;;;;;18.36;55.60;99864.00;5112055;28;20047;-77
2022/09/27 10:43:24;;;;;;;2.30;0.80;;;;;;;18.36;55.67;99861.38;5109880;28;20056;-77
2022/09/27 10:45:50;;;;;;;2.08;0.95;;;;;;;18.35;55.50;99859.66;5114805;28;20051;-81
2022/09/27 10:48:22;;;;;;;2.15;0.90;;;;;;;18.37;55.58;99859.63;5080093;28;20769;-82
2022/09/27 10:53:19;;;;;;;1.73;0.93;;;;;;;18.35;55.82;99861.41;5094907;28;20039;-80
2022/09/27 10:58:35;;;;;;;3.40;0.80;;;;;;;18.37;55.60;99867.44;5109828;28;20044;-79
2022/09/27 11:01:04;;;;;;;2.40;0.82;;;;;;;18.35;55.59;99871.84;5091331;28;20493;-80
2022/09/27 11:03:34;;;;;;;3.58;1.05;;;;;;;18.35;55.63;99875.28;5093303;28;20040;-80
2022/09/27 11:05:59;;;;;;;2.88;0.80;;;;;;;18.34;55.71;99865.78;5109018;28;20063;-79
2022/09/27 11:08:34;;;;;;;1.70;0.80;;;;;;;18.36;55.53;99882.22;5076702;28;20048;-81
2022/09/27 11:11:20;;;;;;;1.67;0.80;;;;;;;18.36;55.50;99881.38;5090666;28;20093;-79
2022/09/27 11:16:13;;;;;;;1.67;0.80;;;;;;;18.36;55.70;99881.38;5083828;28;20052;-76
2022/09/27 11:21:16;;;;;;;2.60;0.73;;;;;;;18.37;55.60;99870.03;5084012;28;20040;-80
2022/09/27 11:26:32;;;;;;;1.77;0.90;;;;;;;18.35;55.33;99854.44;5109582;28;20040;-77
2022/09/27 11:29:21;;;;;;;2.78;0.90;;;;;;;18.36;55.69;99857.94;5108784;28;20078;-77
2022/09/27 11:34:35;;;;;;;2.08;0.80;;;;;;;18.35;55.79;99857.06;5075020;28;20101;-78
2022/09/27 11:37:14;;;;;;;2.60;0.85;;;;;;;18.34;55.71;99842.34;5090078;28;20048;-79
2022/09/27 11:39:50;;;;;;;1.95;0.75;;;;;;;18.33;55.76;99845.81;5092311;28;20117;-78
2022/09/27 11:45:31;;;;;;;2.85;0.73;;;;;;;18.34;55.49;99868.38;5083024;28;20063;-78
2022/09/27 11:47:57;;;;;;;1.48;0.70;;;;;;;18.33;55.58;99871.88;5089639;28;20554;-79
2022/09/27 11:53:34;;;;;;;1.63;0.70;;;;;;;18.34;55.64;99880.56;5099720;28;20981;-79
2022/09/27 11:59:24;;;;;;;1.20;0.60;;;;;;;18.32;55.80;99878.00;5099932;28;20104;-79
2022/09/27 12:01:59;;;;;;;1.45;0.70;;;;;;;18.32;56.03;99870.19;5091563;28;20040;-78
2022/09/27 12:04:38;;;;;;;1.75;0.73;;;;;;;18.33;55.56;99871.03;5083020;28;20057;-78
2022/09/27 12:07:10;;;;;;;1.48;0.75;;;;;;;18.32;55.43;99875.38;5089983;28;20054;-77
2022/09/27 12:09:44;;;;;;;1.50;0.82;;;;;;;18.31;55.47;99876.28;5091813;28;20158;-80
2022/09/27 12:12:15;;;;;;;1.08;0.60;;;;;;;18.32;55.56;99877.16;5089533;28;20108;-79
2022/09/27 12:17:22;;;;;;;1.02;0.60;;;;;;;18.32;55.56;99867.56;5091192;28;20777;-77
2022/09/27 12:22:15;;;;;;;1.45;0.70;;;;;;;18.31;55.50;99860.63;5108236;28;20044;-79
2022/09/27 12:24:44;;;;;;;1.90;0.70;;;;;;;18.30;55.40;99851.97;5091815;28;20072;-79
2022/09/27 12:27:20;;;;;;;1.80;0.70;;;;;;;18.31;55.40;99858.03;5089054;28;20064;-78
2022/09/27 12:29:47;;;;;;;1.80;0.70;;;;;;;18.31;55.56;99858.03;5091680;28;20112;-80
2022/09/27 12:33:39;;;;;;;1.15;0.73;;;;;;;18.32;55.64;99858.91;5103600;27;20407;-80
2022/09/27 12:36:13;;;;;;;1.83;0.77;;;;;;;18.32;55.70;99853.72;5078228;28;20056;-80
2022/09/27 12:38:50;;;;;;;1.08;0.52;;;;;;;18.30;55.61;99849.38;5037002;28;20496;-77
2022/09/27 12:41:20;;;;;;;1.25;0.68;;;;;;;18.32;55.67;99858.91;5046070;28;21037;-79
2022/09/27 12:43:48;;;;;;;1.13;0.60;;;;;;;18.33;55.41;99868.41;5037112;28;20099;-79
2022/09/27 12:46:33;;;;;;;1.27;0.63;;;;;;;18.32;55.63;99861.53;5055239;28;20056;-80
2022/09/27 12:49:32;;;;;;;2.13;0.80;;;;;;;18.32;55.49;99857.16;5036101;28;20056;-80
2022/09/27 12:52:03;;;;;;;1.50;0.60;;;;;;;18.32;55.46;99862.38;5035295;28;20079;-80
2022/09/27 12:54:37;;;;;;;1.20;0.60;;;;;;;18.33;55.43;99861.47;5035880;28;20071;-80
2022/09/27 12:57:14;;;;;;;1.85;0.68;;;;;;;18.34;55.30;99851.91;5044252;28;20460;-80
2022/09/27 12:59:51;;;;;;;1.33;0.60;;;;;;;18.34;55.41;99855.38;5065944;28;20040;-80
2022/09/27 13:02:25;;;;;;;1.00;0.57;;;;;;;18.35;55.42;99854.44;5037310;28;20110;-78
2022/09/27 13:07:46;;;;;;;1.75;0.60;;;;;;;18.36;55.35;99837.94;5064046;28;20096;-79
2022/09/27 13:10:20;;;;;;;1.77;0.70;;;;;;;18.38;55.51;99832.66;5036706;28;20077;-81
2022/09/27 13:12:50;;;;;;;1.67;0.77;;;;;;;18.39;55.53;99837.00;5036615;28;20528;-79
2022/09/27 13:15:26;;;;;;;2.40;0.80;;;;;;;18.40;55.33;99841.28;5045626;28;21498;-78